createdAt,value
2023-02-05T00:01:51.710Z,15.77
2023-02-05T00:04:23.854Z,14.85
2023-02-05T00:06:56.520Z,12.48
2023-02-05T00:09:29.143Z,12.90
2023-02-05T00:12:01.845Z,11.68
2023-02-05T00:14:34.516Z,13.68
2023-02-05T00:17:06.830Z,18.30
2023-02-05T00:20:00.259Z,13.13
2023-02-05T00:22:32.929Z,12.83
2023-02-05T00:25:07.056Z,14.50
2023-02-05T00:27:40.105Z,15.90
2023-02-05T00:30:12.821Z,13.98
2023-02-05T00:32:46.189Z,54.78
2023-02-05T00:35:18.081Z,14.37
2023-02-05T00:37:51.174Z,15.32
2023-02-05T00:40:23.062Z,18.75
2023-02-05T00:42:55.652Z,13.45
2023-02-05T00:45:35.579Z,11.70
2023-02-05T00:48:09.019Z,13.60
2023-02-05T00:50:41.377Z,11.50
2023-02-05T00:53:13.240Z,15.55
2023-02-05T00:55:46.449Z,13.43
2023-02-05T00:58:19.329Z,11.82
2023-02-05T01:01:14.644Z,12.27
2023-02-05T01:03:46.805Z,15.05
2023-02-05T01:06:19.688Z,15.98
2023-02-05T01:08:52.079Z,12.13
2023-02-05T01:11:25.288Z,13.07
2023-02-05T01:13:57.253Z,13.50
2023-02-05T01:16:30.071Z,12.45
2023-02-05T01:19:02.032Z,14.07
2023-02-05T01:21:37.081Z,10.73
2023-02-05T01:24:08.942Z,15.43
2023-02-05T01:26:41.623Z,11.33
2023-02-05T01:29:13.489Z,12.88
2023-02-05T01:31:46.305Z,12.02
2023-02-05T01:34:19.639Z,14.52
2023-02-05T01:36:51.530Z,14.55
2023-02-05T01:39:45.067Z,10.67
2023-02-05T01:42:25.401Z,12.15
2023-02-05T01:45:22.982Z,15.40
2023-02-05T01:48:01.298Z,10.43
2023-02-05T01:50:43.269Z,18.63
2023-02-05T01:53:36.507Z,13.33
2023-02-05T01:56:18.917Z,13.13
2023-02-05T01:59:13.615Z,15.68
2023-02-05T02:02:08.090Z,11.85
2023-02-05T02:04:48.835Z,13.27
2023-02-05T02:07:24.422Z,15.50
2023-02-05T02:09:57.104Z,10.27
2023-02-05T02:12:35.333Z,13.15
2023-02-05T02:15:14.390Z,14.48
2023-02-05T02:17:52.658Z,11.15
2023-02-05T02:20:34.012Z,12.60
2023-02-05T02:23:38.314Z,16.48
2023-02-05T02:26:49.152Z,13.27
2023-02-05T02:29:36.190Z,11.77
2023-02-05T02:32:22.738Z,14.32
2023-02-05T02:35:12.560Z,11.93
2023-02-05T02:38:17.319Z,15.63
2023-02-05T02:41:00.151Z,12.25
2023-02-05T02:44:19.620Z,14.13
2023-02-05T02:46:57.098Z,15.95
2023-02-05T02:49:38.297Z,14.67
2023-02-05T02:52:15.837Z,13.07
2023-02-05T02:54:53.050Z,13.70
2023-02-05T02:57:28.906Z,14.10
2023-02-05T03:00:04.001Z,11.95
2023-02-05T03:02:38.647Z,13.50
2023-02-05T03:05:17.229Z,12.25
2023-02-05T03:08:01.209Z,13.07
2023-02-05T03:10:46.093Z,16.88
2023-02-05T03:13:20.251Z,9.82
2023-02-05T03:15:58.684Z,15.17
2023-02-05T03:18:31.745Z,13.18
2023-02-05T03:21:17.078Z,13.43
2023-02-05T03:23:50.418Z,11.70
2023-02-05T03:26:38.280Z,17.40
2023-02-05T03:29:33.501Z,12.90
2023-02-05T03:32:52.185Z,15.88
2023-02-05T03:35:38.997Z,9.60
2023-02-05T03:38:30.083Z,9.48
2023-02-05T03:41:59.877Z,13.93
2023-02-05T03:45:30.180Z,12.30
2023-02-05T03:48:42.881Z,9.82
2023-02-05T03:51:40.354Z,12.52
2023-02-05T03:54:31.094Z,11.88
2023-02-05T03:57:41.898Z,11.20
2023-02-05T04:00:16.145Z,13.23
2023-02-05T04:02:50.623Z,14.20
2023-02-05T04:05:26.552Z,11.95
2023-02-05T04:08:00.517Z,14.30
2023-02-05T04:10:38.513Z,9.93
2023-02-05T04:13:13.629Z,10.17
2023-02-05T04:15:49.452Z,18.77
2023-02-05T04:18:22.869Z,12.20
2023-02-05T04:20:55.561Z,9.50
2023-02-05T04:23:32.131Z,13.60
2023-02-05T04:26:04.626Z,9.90
2023-02-05T04:28:43.316Z,10.60
2023-02-05T04:31:16.002Z,11.27
2023-02-05T04:33:49.837Z,13.55
2023-02-05T04:36:23.364Z,11.40
2023-02-05T04:38:56.091Z,9.07
2023-02-05T04:41:28.162Z,9.77
2023-02-05T04:44:00.744Z,10.25
2023-02-05T04:46:32.664Z,14.55
2023-02-05T04:49:05.165Z,11.65
2023-02-05T04:51:37.052Z,16.17
2023-02-05T04:54:09.641Z,14.30
2023-02-05T04:56:41.586Z,13.50
2023-02-05T04:59:14.131Z,13.85
2023-02-05T05:01:46.077Z,10.02
2023-02-05T05:04:18.608Z,11.00
2023-02-05T05:06:50.530Z,14.35
2023-02-05T05:09:24.440Z,11.95
2023-02-05T05:11:56.465Z,11.70
2023-02-05T05:14:29.058Z,10.23
2023-02-05T05:17:00.919Z,9.30
2023-02-05T05:19:33.548Z,10.88
2023-02-05T05:22:05.500Z,10.52
2023-02-05T05:24:38.020Z,11.75
2023-02-05T05:27:09.866Z,10.50
2023-02-05T05:29:42.729Z,11.17
2023-02-05T05:32:14.697Z,9.57
2023-02-05T05:34:47.192Z,13.88
2023-02-05T05:37:19.031Z,11.18
2023-02-05T05:40:09.465Z,7.25
2023-02-05T05:42:59.730Z,14.00
2023-02-05T05:45:32.692Z,14.57
2023-02-05T05:48:05.210Z,16.70
2023-02-05T05:50:37.764Z,13.13
2023-02-05T05:53:09.607Z,13.02
2023-02-05T05:55:42.780Z,14.00
2023-02-05T05:58:15.251Z,7.45
2023-02-05T06:00:47.746Z,17.45
2023-02-05T06:03:22.072Z,12.35
2023-02-05T06:05:54.567Z,11.45
2023-02-05T06:08:26.450Z,9.17
2023-02-05T06:10:59.474Z,14.63
2023-02-05T06:13:34.852Z,10.52
2023-02-05T06:16:07.840Z,9.13
2023-02-05T06:18:39.734Z,15.02
2023-02-05T06:21:12.254Z,8.47
2023-02-05T06:23:44.111Z,17.35
2023-02-05T06:26:16.868Z,9.60
2023-02-05T06:28:49.132Z,13.25
2023-02-05T06:31:21.085Z,8.95
2023-02-05T06:33:53.708Z,19.73
2023-02-05T06:36:25.584Z,9.50
2023-02-05T06:38:58.107Z,9.82
2023-02-05T06:41:29.992Z,8.23
2023-02-05T06:44:04.158Z,10.07
2023-02-05T06:46:36.059Z,7.67
2023-02-05T06:49:08.616Z,13.52
2023-02-05T06:51:40.496Z,9.68
2023-02-05T06:54:14.085Z,12.63
2023-02-05T06:56:45.973Z,13.10
2023-02-05T06:59:18.565Z,8.53
2023-02-05T07:01:50.593Z,12.05
2023-02-05T07:04:23.596Z,12.48
2023-02-05T07:06:55.808Z,7.35
2023-02-05T07:09:29.447Z,11.85
2023-02-05T07:12:01.350Z,10.27
2023-02-05T07:14:41.171Z,11.90
2023-02-05T07:17:13.176Z,13.30
2023-02-05T07:19:45.708Z,12.93
2023-02-05T07:22:17.566Z,17.27
2023-02-05T07:24:50.097Z,10.83
2023-02-05T07:27:22.038Z,11.43
2023-02-05T07:29:54.889Z,11.60
2023-02-05T07:32:26.755Z,9.68
2023-02-05T07:34:59.279Z,13.25
2023-02-05T07:37:31.160Z,12.37
2023-02-05T07:40:03.844Z,10.98
2023-02-05T07:42:35.824Z,9.75
2023-02-05T07:45:09.914Z,7.75
2023-02-05T07:47:42.206Z,10.13
2023-02-05T07:50:14.797Z,15.43
2023-02-05T07:52:46.704Z,12.68
2023-02-05T07:55:19.278Z,8.65
2023-02-05T07:57:51.142Z,10.88
2023-02-05T08:00:24.823Z,10.60
2023-02-05T08:02:56.708Z,16.10
2023-02-05T08:05:29.219Z,13.25
2023-02-05T08:08:01.129Z,14.05
2023-02-05T08:10:33.779Z,13.65
2023-02-05T08:13:06.141Z,21.98
2023-02-05T08:15:41.547Z,18.60
2023-02-05T08:18:13.407Z,10.85
2023-02-05T08:20:45.929Z,11.77
2023-02-05T08:23:17.799Z,14.32
2023-02-05T08:25:58.417Z,12.55
2023-02-05T08:28:30.460Z,16.60
2023-02-05T08:31:09.588Z,13.15
2023-02-05T08:33:41.653Z,17.00
2023-02-05T08:36:14.355Z,14.38
2023-02-05T08:38:46.872Z,13.45
2023-02-05T08:41:19.407Z,17.27
2023-02-05T08:43:51.625Z,14.32
2023-02-05T08:46:31.644Z,13.75
2023-02-05T08:49:09.885Z,23.73
2023-02-05T08:51:42.995Z,22.10
2023-02-05T08:54:15.769Z,26.03
2023-02-05T08:56:51.754Z,32.58
2023-02-05T08:59:24.293Z,30.25
2023-02-05T09:01:56.241Z,28.00
2023-02-05T09:04:28.866Z,24.50
2023-02-05T09:07:00.724Z,29.27
2023-02-05T09:09:35.467Z,26.30
2023-02-05T09:12:07.846Z,21.08
2023-02-05T09:14:40.472Z,20.08
2023-02-05T09:17:14.295Z,23.33
2023-02-05T09:19:46.825Z,19.00
2023-02-05T09:22:18.719Z,15.43
2023-02-05T09:24:51.706Z,17.13
2023-02-05T09:27:23.660Z,25.52
2023-02-05T09:29:56.212Z,23.30
2023-02-05T09:32:28.089Z,20.60
2023-02-05T09:35:00.602Z,19.95
2023-02-05T09:37:32.513Z,21.48
2023-02-05T09:40:20.677Z,19.65
2023-02-05T09:43:51.678Z,18.38
2023-02-05T09:47:05.848Z,15.77
2023-02-05T09:49:51.576Z,13.10
2023-02-05T09:52:31.224Z,16.77
2023-02-05T09:55:18.279Z,15.98
2023-02-05T09:57:53.747Z,15.20
2023-02-05T10:00:31.248Z,13.90
2023-02-05T10:03:28.141Z,16.88
2023-02-05T10:06:42.731Z,17.05
2023-02-05T10:09:35.342Z,15.90
2023-02-05T10:12:32.532Z,18.08
2023-02-05T10:15:36.839Z,16.83
2023-02-05T10:18:43.087Z,16.27
2023-02-05T10:22:13.278Z,14.38
2023-02-05T10:25:35.845Z,17.25
2023-02-05T10:28:49.338Z,25.27
2023-02-05T10:31:55.011Z,24.90
2023-02-05T10:34:54.340Z,21.17
2023-02-05T10:37:46.050Z,23.58
2023-02-05T10:40:25.044Z,22.17
2023-02-05T10:43:19.633Z,22.77
2023-02-05T10:45:52.944Z,25.63
2023-02-05T10:48:52.245Z,24.50
2023-02-05T10:51:42.369Z,22.13
2023-02-05T10:54:27.326Z,27.42
2023-02-05T10:57:00.868Z,20.25
2023-02-05T10:59:38.523Z,21.57
2023-02-05T11:02:11.646Z,20.58
2023-02-05T11:05:02.488Z,25.70
2023-02-05T11:07:46.638Z,24.25
2023-02-05T11:10:28.719Z,28.27
2023-02-05T11:13:20.616Z,29.60
2023-02-05T11:16:04.968Z,27.95
2023-02-05T11:18:42.013Z,21.17
2023-02-05T11:21:14.618Z,19.95
2023-02-05T11:23:57.358Z,23.67
2023-02-05T11:26:29.897Z,23.40
2023-02-05T11:29:20.664Z,19.55
2023-02-05T11:31:53.334Z,18.25
2023-02-05T11:34:25.317Z,20.85
2023-02-05T11:36:59.276Z,20.60
2023-02-05T11:39:40.786Z,20.27
2023-02-05T11:42:25.462Z,19.55
2023-02-05T11:45:02.978Z,26.80
2023-02-05T11:47:40.076Z,19.73
2023-02-05T11:50:25.949Z,22.52
2023-02-05T11:53:12.198Z,22.57
2023-02-05T11:55:45.138Z,22.27
2023-02-05T11:58:36.052Z,20.48
2023-02-05T12:01:29.430Z,16.77
2023-02-05T12:04:18.953Z,16.80
2023-02-05T12:06:56.933Z,22.83
2023-02-05T12:09:28.813Z,18.25
2023-02-05T12:12:21.854Z,19.02
2023-02-05T12:15:16.209Z,28.67
2023-02-05T12:17:57.582Z,18.77
2023-02-05T12:20:39.024Z,14.83
2023-02-05T12:23:27.962Z,22.33
2023-02-05T12:26:35.304Z,25.83
2023-02-05T12:29:18.900Z,18.38
2023-02-05T12:32:14.440Z,21.67
2023-02-05T12:35:01.288Z,19.93
2023-02-05T12:37:58.054Z,18.90
2023-02-05T12:40:51.735Z,17.83
2023-02-05T12:43:29.409Z,19.80
2023-02-05T12:46:45.233Z,20.00
2023-02-05T12:49:45.133Z,19.63
2023-02-05T12:52:45.135Z,17.15
2023-02-05T12:56:07.684Z,22.77
2023-02-05T12:58:47.214Z,17.63
2023-02-05T13:01:35.425Z,19.40
2023-02-05T13:04:39.939Z,20.43
2023-02-05T13:07:39.190Z,19.90
2023-02-05T13:10:31.188Z,21.20
2023-02-05T13:13:11.885Z,15.15
2023-02-05T13:15:49.629Z,17.42
2023-02-05T13:18:30.860Z,17.00
2023-02-05T13:21:29.443Z,16.92
2023-02-05T13:24:48.683Z,18.17
2023-02-05T13:27:48.712Z,20.20
2023-02-05T13:30:28.543Z,17.63
2023-02-05T13:33:05.724Z,20.13
2023-02-05T13:36:29.262Z,21.65
2023-02-05T13:40:03.098Z,21.98
2023-02-05T13:43:06.755Z,20.55
2023-02-05T13:46:07.528Z,16.35
2023-02-05T13:49:07.284Z,18.77
2023-02-05T13:52:16.128Z,18.20
2023-02-05T13:55:06.004Z,16.23
2023-02-05T13:58:20.737Z,19.42
2023-02-05T14:01:17.281Z,20.60
2023-02-05T14:03:59.028Z,17.03
2023-02-05T14:06:39.794Z,14.52
2023-02-05T14:09:30.967Z,20.50
2023-02-05T14:12:08.161Z,16.88
2023-02-05T14:14:42.199Z,14.80
2023-02-05T14:17:30.916Z,16.10
2023-02-05T14:20:06.361Z,18.08
2023-02-05T14:22:42.837Z,18.92
2023-02-05T14:25:41.845Z,17.75
2023-02-05T14:28:16.689Z,17.48
2023-02-05T14:30:59.492Z,16.70
2023-02-05T14:33:38.770Z,22.65
2023-02-05T14:36:17.536Z,18.52
2023-02-05T14:38:57.036Z,25.00
2023-02-05T14:41:46.196Z,19.90
2023-02-05T14:44:30.233Z,21.90
2023-02-05T14:47:27.583Z,24.95
2023-02-05T14:50:10.006Z,24.50
2023-02-05T14:52:51.647Z,28.05
2023-02-05T14:55:36.960Z,21.35
2023-02-05T14:58:40.645Z,25.87
2023-02-05T15:01:37.937Z,22.17
2023-02-05T15:04:40.474Z,22.73
2023-02-05T15:07:25.041Z,21.63
2023-02-05T15:10:03.686Z,29.48
2023-02-05T15:12:59.616Z,18.00
2023-02-05T15:15:37.750Z,17.80
2023-02-05T15:18:29.096Z,19.98
2023-02-05T15:21:02.246Z,17.42
2023-02-05T15:23:36.344Z,21.45
2023-02-05T15:26:39.082Z,21.03
2023-02-05T15:29:47.297Z,21.55
2023-02-05T15:32:23.261Z,20.35
2023-02-05T15:35:01.724Z,22.73
2023-02-05T15:37:42.365Z,20.02
2023-02-05T15:40:25.360Z,20.70
2023-02-05T15:43:20.215Z,18.73
2023-02-05T15:46:04.956Z,20.10
2023-02-05T15:48:39.919Z,14.52
2023-02-05T15:51:28.306Z,15.43
2023-02-05T15:54:04.290Z,16.37
2023-02-05T15:56:45.119Z,17.40
2023-02-05T15:59:24.863Z,15.45
2023-02-05T16:02:09.364Z,14.48
2023-02-05T16:04:41.224Z,14.38
2023-02-05T16:07:22.401Z,15.37
2023-02-05T16:09:59.302Z,16.05
2023-02-05T16:12:31.988Z,15.00
2023-02-05T16:15:07.436Z,16.13
2023-02-05T16:17:52.407Z,13.98
2023-02-05T16:20:36.318Z,18.03
2023-02-05T16:23:25.088Z,17.45
2023-02-05T16:26:06.540Z,18.58
2023-02-05T16:28:56.469Z,16.25
2023-02-05T16:31:29.552Z,18.75
2023-02-05T16:34:19.095Z,15.63
2023-02-05T16:36:52.813Z,16.73
2023-02-05T16:39:36.096Z,15.95
2023-02-05T16:42:27.443Z,13.73
2023-02-05T16:45:08.670Z,16.25
2023-02-05T16:47:41.198Z,11.77
2023-02-05T16:50:39.449Z,14.82
2023-02-05T16:53:25.006Z,14.35
2023-02-05T16:56:17.996Z,12.45
2023-02-05T16:58:57.337Z,11.95
2023-02-05T17:01:40.295Z,12.73
2023-02-05T17:04:35.937Z,13.23
2023-02-05T17:07:19.739Z,14.57
2023-02-05T17:09:52.364Z,16.48
2023-02-05T17:12:33.987Z,9.48
2023-02-05T17:15:31.125Z,16.70
2023-02-05T17:18:30.353Z,16.90
2023-02-05T17:21:31.929Z,11.38
2023-02-05T17:24:09.397Z,13.73
2023-02-05T17:26:42.973Z,14.27
2023-02-05T17:29:16.396Z,11.37
2023-02-05T17:31:48.306Z,13.27
2023-02-05T17:34:20.821Z,14.18
2023-02-05T17:36:52.692Z,12.70
2023-02-05T17:39:25.193Z,17.75
2023-02-05T17:42:07.818Z,13.40
2023-02-05T17:44:40.339Z,10.98
2023-02-05T17:47:12.893Z,11.85
2023-02-05T17:49:45.422Z,11.27
2023-02-05T17:52:17.292Z,16.13
2023-02-05T17:54:49.837Z,16.27
2023-02-05T17:57:23.196Z,14.68
2023-02-05T17:59:56.679Z,13.85
2023-02-05T18:02:29.418Z,18.02
2023-02-05T18:05:01.418Z,15.43
2023-02-05T18:07:53.918Z,14.60
2023-02-05T18:10:29.246Z,11.05
2023-02-05T18:13:01.504Z,15.10
2023-02-05T18:15:33.394Z,15.30
2023-02-05T18:18:06.048Z,16.05
2023-02-05T18:20:39.110Z,15.07
2023-02-05T18:23:14.147Z,12.50
2023-02-05T18:25:50.849Z,15.13
2023-02-05T18:28:23.555Z,14.75
2023-02-05T18:31:04.880Z,19.40
2023-02-05T18:33:37.573Z,16.57
2023-02-05T18:36:14.629Z,17.60
2023-02-05T18:38:48.520Z,14.65
2023-02-05T18:41:29.383Z,16.70
2023-02-05T18:44:01.621Z,19.90
2023-02-05T18:46:35.339Z,17.70
2023-02-05T18:49:07.397Z,15.35
2023-02-05T18:51:40.085Z,13.13
2023-02-05T18:54:12.017Z,13.52
2023-02-05T18:56:44.688Z,15.68
2023-02-05T18:59:18.005Z,17.37
2023-02-05T19:01:51.221Z,16.52
2023-02-05T19:04:24.773Z,13.68
2023-02-05T19:06:57.669Z,14.63
2023-02-05T19:09:30.545Z,15.68
2023-02-05T19:12:02.491Z,16.63
2023-02-05T19:14:35.160Z,15.48
2023-02-05T19:17:08.195Z,15.32
2023-02-05T19:19:40.695Z,14.02
2023-02-05T19:22:12.992Z,17.13
2023-02-05T19:24:45.798Z,14.00
2023-02-05T19:27:18.087Z,16.88
2023-02-05T19:29:50.759Z,18.55
2023-02-05T19:32:23.852Z,17.75
2023-02-05T19:34:56.626Z,17.00
2023-02-05T19:37:32.149Z,14.47
2023-02-05T19:40:04.550Z,13.98
2023-02-05T19:42:36.429Z,15.52
2023-02-05T19:45:09.477Z,17.08
2023-02-05T19:47:41.346Z,16.42
2023-02-05T19:50:14.006Z,16.30
2023-02-05T19:52:45.859Z,16.35
2023-02-05T19:58:12.621Z,16.95
2023-02-05T20:00:45.329Z,15.48
2023-02-05T20:03:17.823Z,13.53
2023-02-05T20:05:52.301Z,16.73
2023-02-05T20:08:27.081Z,15.32
2023-02-05T20:11:01.361Z,18.60
2023-02-05T20:13:35.560Z,18.05
2023-02-05T20:16:29.046Z,16.00
2023-02-05T20:19:02.168Z,15.05
2023-02-05T20:21:34.072Z,15.70
2023-02-05T20:24:07.776Z,15.70
2023-02-05T20:26:40.047Z,14.25
2023-02-05T20:29:31.259Z,13.00
2023-02-05T20:32:03.610Z,15.05
2023-02-05T20:34:36.440Z,14.75
2023-02-05T20:37:09.502Z,13.32
2023-02-05T20:39:44.281Z,18.48
2023-02-05T20:42:16.548Z,15.97
2023-02-05T20:44:49.237Z,14.82
2023-02-05T20:47:21.108Z,12.73
2023-02-05T20:49:53.977Z,16.67
2023-02-05T20:52:26.089Z,15.90
2023-02-05T20:54:58.792Z,12.20
2023-02-05T20:57:31.434Z,13.63
2023-02-05T21:00:04.704Z,12.45
2023-02-05T21:02:36.636Z,16.10
2023-02-05T21:05:09.453Z,11.43
2023-02-05T21:07:41.291Z,11.10
2023-02-05T21:10:13.956Z,11.20
2023-02-05T21:12:46.246Z,12.70
2023-02-05T21:15:18.700Z,12.70
2023-02-05T21:17:51.805Z,12.48
2023-02-05T21:20:24.088Z,12.70
2023-02-05T21:22:56.869Z,12.30
2023-02-05T21:25:32.431Z,13.27
2023-02-05T21:28:05.469Z,12.23
2023-02-05T21:30:38.356Z,11.68
2023-02-05T21:33:10.329Z,12.80
2023-02-05T21:35:43.267Z,13.35
2023-02-05T21:38:15.136Z,15.50
2023-02-05T21:40:47.825Z,15.45
2023-02-05T21:43:20.217Z,17.27
2023-02-05T21:45:53.343Z,15.17
2023-02-05T21:48:25.682Z,16.30
2023-02-05T21:50:57.748Z,15.80
2023-02-05T21:53:30.449Z,15.65
2023-02-05T21:56:05.020Z,14.35
2023-02-05T21:58:39.393Z,12.60
2023-02-05T22:01:30.308Z,12.88
2023-02-05T22:04:10.685Z,13.27
2023-02-05T22:06:43.535Z,13.15
2023-02-05T22:09:17.206Z,13.23
2023-02-05T22:11:50.556Z,13.27
2023-02-05T22:14:24.495Z,14.30
2023-02-05T22:16:57.075Z,12.80
2023-02-05T22:22:45.436Z,15.90
2023-02-05T22:25:17.713Z,15.47
2023-02-05T22:27:51.308Z,13.30
2023-02-05T22:30:23.238Z,14.45
2023-02-05T22:32:55.944Z,15.15
2023-02-05T22:35:28.209Z,15.57
2023-02-05T22:38:00.089Z,14.30
2023-02-05T22:40:34.522Z,14.27
2023-02-05T22:43:06.350Z,14.65
2023-02-05T22:45:39.070Z,13.77
2023-02-05T22:48:11.702Z,15.35
2023-02-05T22:50:44.885Z,12.70
2023-02-05T22:53:17.721Z,13.43
2023-02-05T22:55:50.087Z,12.95
2023-02-05T22:58:22.529Z,12.85
2023-02-05T23:00:54.425Z,16.40
2023-02-05T23:03:29.574Z,13.07
2023-02-05T23:06:01.462Z,13.40
2023-02-05T23:08:34.664Z,13.70
2023-02-05T23:11:12.866Z,14.02
2023-02-05T23:13:45.783Z,19.00
2023-02-05T23:16:25.352Z,17.77
2023-02-05T23:19:05.876Z,16.85
2023-02-05T23:21:39.890Z,15.80
2023-02-05T23:24:13.093Z,16.33
2023-02-05T23:26:48.217Z,15.55
2023-02-05T23:29:21.362Z,19.07
2023-02-05T23:31:53.636Z,18.83
2023-02-05T23:34:25.495Z,16.70
2023-02-05T23:36:58.156Z,15.40
2023-02-05T23:39:30.529Z,17.00
2023-02-05T23:42:05.613Z,14.70
2023-02-05T23:44:38.281Z,15.82
2023-02-05T23:47:10.147Z,14.52
2023-02-05T23:49:42.836Z,17.67
2023-02-05T23:52:14.686Z,19.85
2023-02-05T23:54:47.354Z,23.47
2023-02-05T23:57:19.207Z,23.88
2023-02-05T23:59:51.874Z,17.58
